Historyczne dane pomiarowe

Dodano dane terminowe – wersja testowa.

Dane z okresu 1951-2019

Wersja bazy: 1.34 [2019-03-16, lista zmian], aktualizacja planowana na 2019-04-15

Dane meteo z obszaru Polski uzyskane na podstawie danych udostępnionych przez Instytut Meteorologii i Gospodarki Wodnej – Państwowy Instytut Badawczy.

 

Wybierz Datę:    

       

TemperaturaWilgotnośćZachmurzenieWiatrCiśnienieWidzialnośćZjawiska
 Data    tng td wb rh cc ccl cl cm ch dir g1 g2 mslp ppp      
1999-07-02 00:00:00 14.4--- 13.2 13.793wxwx1wx--1017.6 993.0 0.0---wx
1999-07-02 01:00:00 14.1--- 12.9 13.493wxwx1wx--1017.3 992.7----wx
1999-07-02 02:00:00 14.0--- 13.0 13.494wxwxwx1wx--1017.3 992.7----wx
1999-07-02 03:00:00 13.7--- 12.3 12.991wxwxwx1wx--1017.3 992.7----wx
1999-07-02 04:00:00 13.5--- 12.5 12.993wxwxwxwx2wx--1017.5 992.9----wx
1999-07-02 05:00:00 14.9--- 14.1 14.495wxwxwxwx1wx--1017.5 993.0----wx
1999-07-02 06:00:00 17.8--- 16.2 16.890wxwxwxwx1wx--1017.1 992.8 0.0---wx
1999-07-02 07:00:00 18.7--- 16.2 17.185wxwxwxwxwx1wx--1017.0 992.8----wx
1999-07-02 08:00:00 20.4--- 16.2 17.777wxwxwxwx1wx--1016.5 992.5----wx
1999-07-02 09:00:00 21.9--- 16.3 18.371wxwxwxwx0wx--1016.3 992.4----wx
1999-07-02 10:00:00 22.4--- 16.5 18.669wxwxwxwx1wx--1016.0 992.1----wx
1999-07-02 11:00:00 23.3--- 15.1 18.160wxwxwxwx1wx--1015.4 991.6----wx
1999-07-02 12:00:00 23.4--- 14.9 18.059wxwxwxwx2wx--1015.0 991.2 0.0---wx
1999-07-02 13:00:00 24.4--- 16.4 19.261wxwxwxwxwx2wx--1014.4 990.7----wx
1999-07-02 14:00:00 24.5--- 16.7 19.462wxwxwxwx2wx--1014.1 990.4----wx
1999-07-02 15:00:00 23.6--- 15.6 18.561wxwxwxwxwx2wx--1014.0 990.3----wx
1999-07-02 16:00:00 24.0--- 16.1 18.961wxwxwxwx2wx--1014.0 990.3----wx
1999-07-02 17:00:00 20.4--- 16.7 18.079wxwxwxwx4wx--1014.5 990.5----wx
1999-07-02 18:00:00 20.7--- 17.5 18.682wxwxwxwx2wx--1014.8 990.8 0.0---wx
1999-07-02 19:00:00 19.5--- 17.0 17.986wxwxwxwx1wx--1015.2 991.1----wx
1999-07-02 20:00:00 17.8--- 15.9 16.689wxwxwxwx1wx--1015.8 991.6----wx
1999-07-02 21:00:00 16.6--- 15.8 16.195wxwxwx3wx--1016.3 992.0----wx
1999-07-02 22:00:00 17.2--- 16.4 16.795wxwxwxwxwx2wx--1016.4 992.1----wx
1999-07-02 23:00:00 17.4--- 16.5 16.894wxwxwx3wx--1016.6 992.3----wx

 

Źródłem pochodzenia danych jest Instytut Meteorologii i Gospodarki Wodnej – Państwowy Instytut Badawczy. Dane Instytutu Meteorologii i Gospodarki Wodnej – Państwowego Instytutu Badawczego zostały przetworzone.

Dane źródłowe można odnaleźć na stronie https://dane.imgw.pl